createdAt,value
2023-03-26T00:04:25.572Z,99215.56
2023-03-26T00:09:29.810Z,99225.00
2023-03-26T00:14:32.674Z,99225.00
2023-03-26T00:19:34.933Z,99239.13
2023-03-26T00:24:37.590Z,99244.69
2023-03-26T00:29:40.010Z,99255.03
2023-03-26T00:34:42.499Z,99261.75
2023-03-26T00:39:44.615Z,99247.97
2023-03-26T00:44:46.911Z,99238.38
2023-03-26T00:49:48.847Z,99238.19
2023-03-26T00:54:52.140Z,99236.13
2023-03-26T00:59:53.830Z,99234.94
2023-03-26T01:04:58.618Z,99229.03
2023-03-26T01:10:00.830Z,99227.19
2023-03-26T01:15:04.520Z,99231.25
2023-03-26T01:20:12.772Z,99226.69
2023-03-26T01:25:14.601Z,99226.69
2023-03-26T01:30:17.103Z,99221.66
2023-03-26T01:35:32.661Z,99229.72
2023-03-26T01:41:14.118Z,99246.03
2023-03-26T01:46:16.580Z,99221.16
2023-03-26T01:51:30.304Z,99227.19
2023-03-26T01:56:40.886Z,99228.19
2023-03-26T02:01:54.942Z,99224.13
2023-03-26T02:07:05.871Z,99221.03
2023-03-26T02:12:08.526Z,99223.84
2023-03-26T02:17:10.913Z,99219.28
2023-03-26T02:22:15.633Z,99231.56
2023-03-26T02:27:18.965Z,99233.22
2023-03-26T02:32:21.241Z,99231.56
2023-03-26T02:37:22.958Z,99234.75
2023-03-26T02:42:31.503Z,99231.72
2023-03-26T02:47:33.859Z,99237.41
2023-03-26T02:52:58.779Z,99233.00
2023-03-26T02:58:01.913Z,99238.84
2023-03-26T03:03:09.781Z,99231.16
2023-03-26T03:08:30.115Z,99225.63
2023-03-26T03:13:54.826Z,99229.69
2023-03-26T03:18:59.648Z,99239.25
2023-03-26T03:24:11.624Z,99234.13
2023-03-26T03:29:19.685Z,99226.03
2023-03-26T03:34:22.297Z,99225.31
2023-03-26T03:39:26.157Z,99219.44
2023-03-26T03:44:28.813Z,99224.13
2023-03-26T03:49:30.784Z,99221.78
2023-03-26T03:54:33.700Z,99221.50
2023-03-26T04:00:11.689Z,99206.78
2023-03-26T04:05:25.263Z,99216.81
2023-03-26T04:10:27.442Z,99206.69
2023-03-26T04:15:49.230Z,99212.91
2023-03-26T04:20:50.955Z,99215.31
2023-03-26T04:26:04.219Z,99211.97
2023-03-26T04:31:29.464Z,99209.16
2023-03-26T04:36:34.324Z,99199.28
2023-03-26T04:41:36.348Z,99205.22
2023-03-26T04:46:43.699Z,99202.72
2023-03-26T04:51:52.844Z,99199.19
2023-03-26T04:57:21.268Z,99201.19
2023-03-26T05:02:32.543Z,99197.66
2023-03-26T05:07:34.463Z,99198.34
2023-03-26T05:12:36.294Z,99200.69
2023-03-26T05:17:43.017Z,99196.38
2023-03-26T05:22:53.370Z,99208.44
2023-03-26T05:28:02.612Z,99210.91
2023-03-26T05:33:14.333Z,99205.00
2023-03-26T05:38:25.536Z,99218.22
2023-03-26T05:43:28.619Z,99220.03
2023-03-26T05:48:46.645Z,99213.50
2023-03-26T05:53:48.357Z,99219.03
2023-03-26T05:59:18.930Z,99219.53
2023-03-26T06:04:46.732Z,99215.38
2023-03-26T06:10:03.912Z,99223.84
2023-03-26T06:15:06.582Z,99215.72
2023-03-26T06:20:37.665Z,99221.97
2023-03-26T06:25:49.912Z,99213.75
2023-03-26T06:31:03.893Z,99212.59
2023-03-26T06:36:15.014Z,99213.16
2023-03-26T06:41:17.104Z,99211.31
2023-03-26T06:46:39.071Z,99219.38
2023-03-26T06:52:09.527Z,99214.00
2023-03-26T06:57:14.059Z,99210.81
2023-03-26T07:02:35.745Z,99214.69
2023-03-26T07:07:57.967Z,99217.34
2023-03-26T07:13:17.904Z,99217.19
2023-03-26T07:18:55.359Z,99216.19
2023-03-26T07:24:00.917Z,99210.97
2023-03-26T07:29:45.642Z,99198.19
2023-03-26T07:35:10.448Z,99194.97
2023-03-26T07:40:59.464Z,99192.06
2023-03-26T07:46:27.569Z,99195.41
2023-03-26T07:51:48.921Z,99201.63
2023-03-26T07:57:07.043Z,99195.06
2023-03-26T08:02:49.844Z,99204.47
2023-03-26T08:08:33.626Z,99208.34
2023-03-26T08:14:17.394Z,99193.88
2023-03-26T08:19:43.481Z,99190.16
2023-03-26T08:25:19.040Z,99194.88
2023-03-26T08:30:23.274Z,99192.72
2023-03-26T08:35:26.339Z,99197.44
2023-03-26T08:40:52.893Z,99187.31
2023-03-26T08:46:03.906Z,99184.44
2023-03-26T08:51:40.836Z,99179.75
2023-03-26T08:56:48.073Z,99179.91
2023-03-26T09:02:20.771Z,99176.19
2023-03-26T09:07:49.830Z,99165.03
2023-03-26T09:13:00.417Z,99163.66
2023-03-26T09:18:16.885Z,99160.56
2023-03-26T09:23:30.539Z,99161.47
2023-03-26T09:28:53.925Z,99156.75
2023-03-26T09:34:20.278Z,99145.44
2023-03-26T09:39:43.805Z,99141.06
2023-03-26T09:45:02.222Z,99128.91
2023-03-26T09:50:41.012Z,99122.06
2023-03-26T09:55:51.073Z,99122.56
2023-03-26T10:01:15.843Z,99122.50
2023-03-26T10:06:22.834Z,99113.91
2023-03-26T10:11:35.453Z,99116.22
2023-03-26T10:16:50.675Z,99108.69
2023-03-26T10:21:59.617Z,99094.91
2023-03-26T10:27:08.456Z,99085.13
2023-03-26T10:32:37.956Z,99074.38
2023-03-26T10:38:06.292Z,99068.91
2023-03-26T10:43:20.746Z,99058.69
2023-03-26T10:48:27.112Z,99036.50
2023-03-26T10:53:32.271Z,99015.50
2023-03-26T10:58:48.382Z,99014.16
2023-03-26T11:03:54.311Z,99009.19
2023-03-26T11:09:03.043Z,98990.41
2023-03-26T11:14:42.447Z,99001.56
2023-03-26T11:20:16.083Z,98991.63
2023-03-26T11:25:35.862Z,98985.22
2023-03-26T11:30:44.921Z,98982.72
2023-03-26T11:35:49.608Z,98985.25
2023-03-26T11:40:55.320Z,98978.41
2023-03-26T11:46:19.198Z,98970.19
2023-03-26T11:51:36.783Z,98956.69
2023-03-26T11:57:06.021Z,98958.13
2023-03-26T12:02:11.672Z,98954.97
2023-03-26T12:07:34.248Z,98962.59
2023-03-26T12:12:41.418Z,98961.50
2023-03-26T12:17:43.392Z,98951.09
2023-03-26T12:22:47.932Z,98936.19
2023-03-26T12:28:04.860Z,98941.31
2023-03-26T12:33:16.321Z,98936.16
2023-03-26T12:38:33.328Z,98927.25
2023-03-26T12:44:53.000Z,98937.13
2023-03-26T12:49:14.210Z,98933.69
2023-03-26T12:54:28.891Z,98931.59
2023-03-26T12:59:45.643Z,98934.47
2023-03-26T13:05:13.261Z,98923.97
2023-03-26T13:10:33.789Z,98916.81
2023-03-26T13:15:47.580Z,98913.06
2023-03-26T13:21:02.819Z,98915.88
2023-03-26T13:26:35.160Z,98902.66
2023-03-26T13:31:38.054Z,98898.28
2023-03-26T13:37:04.984Z,98887.00
2023-03-26T13:42:12.860Z,98889.69
2023-03-26T13:47:18.224Z,98873.91
2023-03-26T13:52:26.998Z,98877.00
2023-03-26T13:57:33.336Z,98885.28
2023-03-26T14:02:38.153Z,98875.47
2023-03-26T14:08:04.286Z,98890.81
2023-03-26T14:13:24.351Z,98883.69
2023-03-26T14:18:41.677Z,98886.91
2023-03-26T14:23:58.600Z,98897.72
2023-03-26T14:29:12.350Z,98911.91
2023-03-26T14:34:42.687Z,98909.66
2023-03-26T14:40:15.132Z,98908.31
2023-03-26T14:45:32.095Z,98900.59
2023-03-26T14:50:54.683Z,98901.50
2023-03-26T14:56:24.126Z,98894.53
2023-03-26T15:01:57.971Z,98894.44
2023-03-26T15:07:45.853Z,98886.16
2023-03-26T15:12:54.588Z,98884.19
2023-03-26T15:18:10.257Z,98881.75
2023-03-26T15:23:49.070Z,98892.13
2023-03-26T15:29:09.980Z,98893.03
2023-03-26T15:34:25.703Z,98883.69
2023-03-26T15:39:27.739Z,98888.94
2023-03-26T15:44:50.937Z,98882.31
2023-03-26T15:50:20.317Z,98889.06
2023-03-26T15:55:41.371Z,98889.09
2023-03-26T16:01:21.429Z,98894.78
2023-03-26T16:06:57.495Z,98898.81
2023-03-26T16:12:03.985Z,98884.22
2023-03-26T16:17:06.543Z,98888.44
2023-03-26T16:22:14.583Z,98893.97
2023-03-26T16:27:16.218Z,98895.66
2023-03-26T16:32:29.836Z,98899.38
2023-03-26T16:37:31.909Z,98894.34
2023-03-26T16:42:42.210Z,98891.31
2023-03-26T16:48:21.027Z,98900.50
2023-03-26T16:53:46.661Z,98903.19
2023-03-26T16:58:58.651Z,98903.38
2023-03-26T17:04:25.776Z,98901.84
2023-03-26T17:09:37.961Z,98904.22
2023-03-26T17:14:48.950Z,98911.25
2023-03-26T17:20:47.515Z,98914.94
2023-03-26T17:26:07.171Z,98911.91
2023-03-26T17:31:58.061Z,98908.75
2023-03-26T17:37:01.152Z,98917.78
2023-03-26T17:42:25.682Z,98917.97
2023-03-26T17:47:35.707Z,98926.50
2023-03-26T17:52:48.967Z,98928.84
2023-03-26T17:57:53.769Z,98933.56
2023-03-26T18:02:58.144Z,98933.38
2023-03-26T18:08:37.433Z,98944.13
2023-03-26T18:14:09.814Z,98942.94
2023-03-26T18:19:19.300Z,98949.31
2023-03-26T18:24:22.573Z,98951.97
2023-03-26T18:29:32.558Z,98943.09
2023-03-26T18:34:36.540Z,98933.84
2023-03-26T18:39:38.444Z,98932.00
2023-03-26T18:44:41.125Z,98937.69
2023-03-26T18:49:45.592Z,98938.53
2023-03-26T18:54:49.452Z,98929.66
2023-03-26T18:59:52.641Z,98929.97
2023-03-26T19:04:54.508Z,98927.13
2023-03-26T19:09:56.767Z,98925.47
2023-03-26T19:15:07.807Z,98917.19
2023-03-26T19:20:19.489Z,98907.47
2023-03-26T19:25:24.056Z,98910.00
2023-03-26T19:30:34.293Z,98907.97
2023-03-26T19:35:37.770Z,98901.66
2023-03-26T19:40:42.230Z,98898.97
2023-03-26T19:45:59.283Z,98895.94
2023-03-26T19:51:05.409Z,98887.41
2023-03-26T19:56:15.980Z,98875.00
2023-03-26T20:01:23.699Z,98877.69
2023-03-26T20:11:52.534Z,98858.91
2023-03-26T20:16:54.353Z,98853.38
2023-03-26T20:21:56.433Z,98845.66
2023-03-26T20:26:58.086Z,98839.63
2023-03-26T20:31:59.737Z,98836.78
2023-03-26T20:37:02.063Z,98838.13
2023-03-26T20:42:03.757Z,98843.47
2023-03-26T20:47:05.427Z,98839.09
2023-03-26T20:52:07.072Z,98834.72
2023-03-26T20:57:11.816Z,98831.53
2023-03-26T21:02:13.863Z,98832.88
2023-03-26T21:07:18.443Z,98829.53
2023-03-26T21:12:20.565Z,98831.53
2023-03-26T21:17:23.176Z,98828.00
2023-03-26T21:22:32.048Z,98839.56
2023-03-26T21:27:50.321Z,98832.69
2023-03-26T21:32:52.146Z,98834.69
2023-03-26T21:37:54.614Z,98834.88
2023-03-26T21:42:56.684Z,98857.16
2023-03-26T21:47:58.544Z,98864.19
2023-03-26T21:53:00.598Z,98873.75
2023-03-26T21:58:29.235Z,98875.25
2023-03-26T22:03:43.111Z,98885.66
2023-03-26T22:08:45.132Z,98889.00
2023-03-26T22:13:46.780Z,98887.63
2023-03-26T22:18:48.385Z,98888.66
2023-03-26T22:23:53.961Z,98883.44
2023-03-26T22:28:55.659Z,98886.78
2023-03-26T22:33:57.319Z,98890.13
2023-03-26T22:38:58.971Z,98891.44
2023-03-26T22:44:09.275Z,98888.09
2023-03-26T22:49:14.967Z,98884.88
2023-03-26T22:54:16.828Z,98889.19
2023-03-26T22:59:18.686Z,98889.66
2023-03-26T23:04:30.678Z,98887.16
2023-03-26T23:09:32.742Z,98898.53
2023-03-26T23:14:34.401Z,98896.50
2023-03-26T23:19:37.055Z,98902.38
2023-03-26T23:24:39.418Z,98899.19
2023-03-26T23:29:42.236Z,98896.34
2023-03-26T23:34:52.051Z,98908.91
2023-03-26T23:39:54.129Z,98918.28
2023-03-26T23:44:56.914Z,98913.63
2023-03-26T23:49:58.679Z,98912.63
2023-03-26T23:55:01.214Z,98920.81
